Windham, Connecticut
Current Conditions -  °F | °C
As of 7:52 AM on Saturday 20 Dec 2014 (Local Time) from KIJD Reporting Station
Overcast Overcast  
Wind Chill: 28°   Ceiling: 2900
Heat Index: 28°   Visibility: 10mi
Dew Point: 21°   Wind: 3mph
Humidity: 75%   Direction: 360°N
Pressure: 30.27"   Gusts: NA
Location:  41.7°N, 72.16°W
Report Text: KIJD 201252Z AUTO 36003KT 10SM OVC029 M02/M06 A3027 RMK AO2 SLP251 T10221061
Loading
Personal Weather Stations






























Interactive Weather Map New forecast layout! Learn more

10-Day Weather Forecast

Advertisements
Track Severe Weather on mobile